This is the latest recevied weather packets stored in our database for station/object I2HLY-4. If no packets are shown the sender has not sent any weather packets the latest 10 day(s).
| Time | Temp. | Humidity | Pressure | Rain* | Wind** | Luminosity | Snow |
|---|---|---|---|---|---|---|---|
| 1777918646 | 12.78° C | 58% | 1018.2 hPa | 0 mm | - | - | - |
| 1777917730 | 13.89° C | 56% | 1018.2 hPa | 0 mm | - | - | - |
| 1777916831 | 15.56° C | 53% | 1018.2 hPa | 0 mm | - | - | - |
| 1777915932 | 16.11° C | 48% | 1018.2 hPa | 0 mm | - | - | - |
| 1777915035 | 16.11° C | 45% | 1018.2 hPa | 0 mm | - | - | - |
| 1777914136 | 16.11° C | 45% | 1018.2 hPa | 0 mm | - | - | - |
| 1777913234 | 16.11° C | 45% | 1018.3 hPa | 0 mm | - | - | - |
| 1777912340 | 16.11° C | 47% | 1018.3 hPa | 0 mm | - | - | - |
| 1777911441 | 15.56° C | 49% | 1018.4 hPa | 0 mm | - | - | - |
| 1777910547 | 15° C | 53% | 1018.4 hPa | 0 mm | - | - | - |
| 1777909649 | 14.44° C | 56% | 1018.6 hPa | 0 mm | - | - | - |
| 1777907838 | 15° C | 56% | 1018.7 hPa | 0 mm | - | - | - |
| 1777906950 | 15° C | 56% | 1018.7 hPa | 0 mm | - | - | - |
| 1777906043 | 15.56° C | 55% | 1018.7 hPa | 0 mm | - | - | - |
| 1777905141 | 16.11° C | 54% | 1018.6 hPa | 0 mm | - | - | - |
| 1777904235 | 16.11° C | 51% | 1018.4 hPa | 0 mm | - | - | - |
| 1777903349 | 16.11° C | 50% | 1018.4 hPa | 0 mm | - | - | - |
| 1777902446 | 16.11° C | 51% | 1019 hPa | 0 mm | - | - | - |
| 1777901538 | 16.11° C | 50% | 1019 hPa | 0 mm | - | - | - |
| 1777900635 | 16.11° C | 54% | 1019 hPa | 0 mm | - | - | - |
| 1777899749 | 16.67° C | 49% | 1019.3 hPa | 0 mm | - | - | - |
| 1777898844 | 16.67° C | 49% | 1019.5 hPa | 0 mm | - | - | - |
| 1777897942 | 16.67° C | 51% | 1019.4 hPa | 0 mm | - | - | - |
| 1777897034 | 16.67° C | 50% | 1019.5 hPa | 0 mm | - | - | - |
| 1777896148 | 16.67° C | 52% | 1019.6 hPa | 0 mm | - | - | - |
* Rain latest hour (hover to see other rain measurements)
** Current wind speed in m/s (hover to see current wind gust speed)